sensor_id;sensor_type;location;lat;lon;timestamp;temperature;humidity
61591;DHT22;57639;52.410;-1.966;2023-02-03T00:02:46;15.50;47.00
61591;DHT22;57639;52.410;-1.966;2023-02-03T00:05:53;15.50;47.00
61591;DHT22;57639;52.410;-1.966;2023-02-03T00:08:57;15.50;47.00
61591;DHT22;57639;52.410;-1.966;2023-02-03T00:12:07;15.50;47.00
61591;DHT22;57639;52.410;-1.966;2023-02-03T00:15:11;15.50;47.10
61591;DHT22;57639;52.410;-1.966;2023-02-03T00:18:20;15.40;47.10
61591;DHT22;57639;52.410;-1.966;2023-02-03T00:21:24;15.40;47.10
61591;DHT22;57639;52.410;-1.966;2023-02-03T00:24:30;15.40;47.10
61591;DHT22;57639;52.410;-1.966;2023-02-03T00:27:39;15.40;47.10
61591;DHT22;57639;52.410;-1.966;2023-02-03T00:30:45;15.40;47.10
61591;DHT22;57639;52.410;-1.966;2023-02-03T00:33:53;15.40;47.10
61591;DHT22;57639;52.410;-1.966;2023-02-03T00:37:01;15.40;47.10
61591;DHT22;57639;52.410;-1.966;2023-02-03T00:40:08;15.40;47.10
61591;DHT22;57639;52.410;-1.966;2023-02-03T00:43:14;15.40;47.10
61591;DHT22;57639;52.410;-1.966;2023-02-03T00:46:22;15.40;47.10
61591;DHT22;57639;52.410;-1.966;2023-02-03T00:49:26;15.40;47.10
61591;DHT22;57639;52.410;-1.966;2023-02-03T00:52:36;15.40;47.10
61591;DHT22;57639;52.410;-1.966;2023-02-03T00:55:42;15.40;47.10
61591;DHT22;57639;52.410;-1.966;2023-02-03T00:58:49;15.40;47.10
61591;DHT22;57639;52.410;-1.966;2023-02-03T01:01:55;15.40;47.20
61591;DHT22;57639;52.410;-1.966;2023-02-03T01:05:01;15.30;47.10
61591;DHT22;57639;52.410;-1.966;2023-02-03T01:08:05;15.30;47.20
61591;DHT22;57639;52.410;-1.966;2023-02-03T01:11:13;15.30;47.20
61591;DHT22;57639;52.410;-1.966;2023-02-03T01:14:23;15.30;47.20
61591;DHT22;57639;52.410;-1.966;2023-02-03T01:17:31;15.30;47.20
61591;DHT22;57639;52.410;-1.966;2023-02-03T01:20:35;15.30;47.30
61591;DHT22;57639;52.410;-1.966;2023-02-03T01:23:41;15.30;47.30
61591;DHT22;57639;52.410;-1.966;2023-02-03T01:26:45;15.20;47.30
61591;DHT22;57639;52.410;-1.966;2023-02-03T01:29:54;15.20;47.30
61591;DHT22;57639;52.410;-1.966;2023-02-03T01:33:02;15.10;47.30
61591;DHT22;57639;52.410;-1.966;2023-02-03T01:36:07;15.20;47.30
61591;DHT22;57639;52.410;-1.966;2023-02-03T01:39:13;15.10;47.40
61591;DHT22;57639;52.410;-1.966;2023-02-03T01:42:17;15.20;47.40
61591;DHT22;57639;52.410;-1.966;2023-02-03T01:45:26;15.10;47.40
61591;DHT22;57639;52.410;-1.966;2023-02-03T01:48:32;15.10;47.30
61591;DHT22;57639;52.410;-1.966;2023-02-03T01:51:41;15.10;47.40
61591;DHT22;57639;52.410;-1.966;2023-02-03T01:54:49;15.10;47.40
61591;DHT22;57639;52.410;-1.966;2023-02-03T01:58:00;15.10;47.40
61591;DHT22;57639;52.410;-1.966;2023-02-03T02:01:10;15.10;47.40
61591;DHT22;57639;52.410;-1.966;2023-02-03T02:04:16;15.10;47.40
61591;DHT22;57639;52.410;-1.966;2023-02-03T02:07:26;15.10;47.40
61591;DHT22;57639;52.410;-1.966;2023-02-03T02:10:30;15.10;47.40
61591;DHT22;57639;52.410;-1.966;2023-02-03T02:13:37;15.10;47.40
61591;DHT22;57639;52.410;-1.966;2023-02-03T02:16:51;15.10;47.40
61591;DHT22;57639;52.410;-1.966;2023-02-03T02:27:47;15.10;47.40
61591;DHT22;57639;52.410;-1.966;2023-02-03T02:34:49;15.10;47.40
61591;DHT22;57639;52.410;-1.966;2023-02-03T02:38:03;15.10;47.50
61591;DHT22;57639;52.410;-1.966;2023-02-03T02:41:13;15.10;47.50
61591;DHT22;57639;52.410;-1.966;2023-02-03T02:44:24;15.00;47.40
61591;DHT22;57639;52.410;-1.966;2023-02-03T02:47:30;15.00;47.40
61591;DHT22;57639;52.410;-1.966;2023-02-03T02:50:40;15.00;47.40
61591;DHT22;57639;52.410;-1.966;2023-02-03T02:53:50;15.00;47.40
61591;DHT22;57639;52.410;-1.966;2023-02-03T02:57:00;15.00;47.40
61591;DHT22;57639;52.410;-1.966;2023-02-03T03:00:09;15.00;47.50
61591;DHT22;57639;52.410;-1.966;2023-02-03T03:03:16;15.00;47.50
61591;DHT22;57639;52.410;-1.966;2023-02-03T03:06:27;15.00;47.50
61591;DHT22;57639;52.410;-1.966;2023-02-03T03:09:39;15.00;47.50
61591;DHT22;57639;52.410;-1.966;2023-02-03T03:12:50;15.00;47.40
61591;DHT22;57639;52.410;-1.966;2023-02-03T03:15:59;15.00;47.50
61591;DHT22;57639;52.410;-1.966;2023-02-03T03:19:09;15.00;47.50
61591;DHT22;57639;52.410;-1.966;2023-02-03T03:22:23;15.00;47.50
61591;DHT22;57639;52.410;-1.966;2023-02-03T03:25:35;15.00;47.40
61591;DHT22;57639;52.410;-1.966;2023-02-03T03:28:47;15.00;47.40
61591;DHT22;57639;52.410;-1.966;2023-02-03T03:31:54;15.00;47.50
61591;DHT22;57639;52.410;-1.966;2023-02-03T03:35:01;15.00;47.50
61591;DHT22;57639;52.410;-1.966;2023-02-03T03:38:15;15.00;47.50
61591;DHT22;57639;52.410;-1.966;2023-02-03T03:41:33;15.00;47.50
61591;DHT22;57639;52.410;-1.966;2023-02-03T03:44:47;15.00;47.50
61591;DHT22;57639;52.410;-1.966;2023-02-03T03:48:02;14.90;47.50
61591;DHT22;57639;52.410;-1.966;2023-02-03T03:51:14;15.00;47.50
61591;DHT22;57639;52.410;-1.966;2023-02-03T03:54:25;14.90;47.50
61591;DHT22;57639;52.410;-1.966;2023-02-03T03:57:35;14.90;47.50
61591;DHT22;57639;52.410;-1.966;2023-02-03T04:00:45;14.90;47.50
61591;DHT22;57639;52.410;-1.966;2023-02-03T04:03:55;14.90;47.50
61591;DHT22;57639;52.410;-1.966;2023-02-03T04:07:02;14.90;47.60
61591;DHT22;57639;52.410;-1.966;2023-02-03T04:10:19;14.90;47.60
61591;DHT22;57639;52.410;-1.966;2023-02-03T04:13:26;14.80;47.60
61591;DHT22;57639;52.410;-1.966;2023-02-03T04:16:32;14.80;47.60
61591;DHT22;57639;52.410;-1.966;2023-02-03T04:19:38;14.90;47.60
61591;DHT22;57639;52.410;-1.966;2023-02-03T04:22:44;14.90;47.60
61591;DHT22;57639;52.410;-1.966;2023-02-03T04:25:53;14.90;47.60
61591;DHT22;57639;52.410;-1.966;2023-02-03T04:28:59;14.80;47.60
61591;DHT22;57639;52.410;-1.966;2023-02-03T04:32:04;14.80;47.60
61591;DHT22;57639;52.410;-1.966;2023-02-03T04:35:10;14.80;47.60
61591;DHT22;57639;52.410;-1.966;2023-02-03T04:38:16;14.80;47.60
61591;DHT22;57639;52.410;-1.966;2023-02-03T04:41:25;14.80;47.60
61591;DHT22;57639;52.410;-1.966;2023-02-03T04:44:31;14.80;47.60
61591;DHT22;57639;52.410;-1.966;2023-02-03T04:47:38;14.80;47.60
61591;DHT22;57639;52.410;-1.966;2023-02-03T04:50:44;14.80;47.60
61591;DHT22;57639;52.410;-1.966;2023-02-03T04:53:51;14.80;47.70
61591;DHT22;57639;52.410;-1.966;2023-02-03T04:57:00;14.80;47.70
61591;DHT22;57639;52.410;-1.966;2023-02-03T05:00:07;14.80;47.60
61591;DHT22;57639;52.410;-1.966;2023-02-03T05:03:13;14.80;47.70
61591;DHT22;57639;52.410;-1.966;2023-02-03T05:06:22;14.80;47.70
61591;DHT22;57639;52.410;-1.966;2023-02-03T05:09:30;14.80;47.70
61591;DHT22;57639;52.410;-1.966;2023-02-03T05:12:39;14.80;47.70
61591;DHT22;57639;52.410;-1.966;2023-02-03T05:15:48;14.80;47.70
61591;DHT22;57639;52.410;-1.966;2023-02-03T05:18:54;14.80;47.70
61591;DHT22;57639;52.410;-1.966;2023-02-03T05:22:00;14.80;47.70
61591;DHT22;57639;52.410;-1.966;2023-02-03T05:25:11;14.80;47.70
61591;DHT22;57639;52.410;-1.966;2023-02-03T05:28:25;14.70;47.70
61591;DHT22;57639;52.410;-1.966;2023-02-03T05:31:31;14.70;47.70
61591;DHT22;57639;52.410;-1.966;2023-02-03T05:34:38;14.80;47.80
61591;DHT22;57639;52.410;-1.966;2023-02-03T05:37:44;14.70;47.80
61591;DHT22;57639;52.410;-1.966;2023-02-03T05:40:51;14.70;47.80
61591;DHT22;57639;52.410;-1.966;2023-02-03T05:44:16;14.70;47.80
61591;DHT22;57639;52.410;-1.966;2023-02-03T05:47:22;14.70;47.90
61591;DHT22;57639;52.410;-1.966;2023-02-03T05:50:28;14.70;47.90
61591;DHT22;57639;52.410;-1.966;2023-02-03T05:53:35;14.70;47.90
61591;DHT22;57639;52.410;-1.966;2023-02-03T05:56:41;14.70;47.90
61591;DHT22;57639;52.410;-1.966;2023-02-03T05:59:50;14.70;47.90
61591;DHT22;57639;52.410;-1.966;2023-02-03T06:02:57;14.60;47.90
61591;DHT22;57639;52.410;-1.966;2023-02-03T06:06:04;14.60;47.90
61591;DHT22;57639;52.410;-1.966;2023-02-03T06:09:10;14.70;47.90
61591;DHT22;57639;52.410;-1.966;2023-02-03T06:12:16;14.60;47.90
61591;DHT22;57639;52.410;-1.966;2023-02-03T06:15:25;14.60;47.90
61591;DHT22;57639;52.410;-1.966;2023-02-03T06:18:31;14.60;47.90
61591;DHT22;57639;52.410;-1.966;2023-02-03T06:21:37;14.70;47.90
61591;DHT22;57639;52.410;-1.966;2023-02-03T06:24:43;14.60;47.90
61591;DHT22;57639;52.410;-1.966;2023-02-03T06:27:50;14.60;48.00
61591;DHT22;57639;52.410;-1.966;2023-02-03T06:31:00;14.60;48.00
61591;DHT22;57639;52.410;-1.966;2023-02-03T06:34:06;14.60;48.00
61591;DHT22;57639;52.410;-1.966;2023-02-03T06:37:15;14.60;48.10
61591;DHT22;57639;52.410;-1.966;2023-02-03T06:40:21;14.60;48.10
61591;DHT22;57639;52.410;-1.966;2023-02-03T06:43:27;14.60;48.10
61591;DHT22;57639;52.410;-1.966;2023-02-03T06:46:36;14.60;48.10
61591;DHT22;57639;52.410;-1.966;2023-02-03T06:49:42;14.60;48.10
61591;DHT22;57639;52.410;-1.966;2023-02-03T06:52:48;14.60;48.10
61591;DHT22;57639;52.410;-1.966;2023-02-03T06:55:54;14.60;48.10
61591;DHT22;57639;52.410;-1.966;2023-02-03T06:59:00;14.60;48.10
61591;DHT22;57639;52.410;-1.966;2023-02-03T07:02:10;14.60;48.10
61591;DHT22;57639;52.410;-1.966;2023-02-03T07:05:16;14.60;48.20
61591;DHT22;57639;52.410;-1.966;2023-02-03T07:08:22;14.60;48.20
61591;DHT22;57639;52.410;-1.966;2023-02-03T07:11:28;14.60;48.20
61591;DHT22;57639;52.410;-1.966;2023-02-03T07:14:36;14.60;48.10
61591;DHT22;57639;52.410;-1.966;2023-02-03T07:17:46;14.60;48.10
61591;DHT22;57639;52.410;-1.966;2023-02-03T07:20:56;14.70;48.00
61591;DHT22;57639;52.410;-1.966;2023-02-03T07:24:02;14.90;47.90
61591;DHT22;57639;52.410;-1.966;2023-02-03T07:27:08;15.10;47.50
61591;DHT22;57639;52.410;-1.966;2023-02-03T07:30:15;15.40;47.20
61591;DHT22;57639;52.410;-1.966;2023-02-03T07:33:23;15.60;46.90
61591;DHT22;57639;52.410;-1.966;2023-02-03T07:36:30;15.90;46.40
61591;DHT22;57639;52.410;-1.966;2023-02-03T07:39:36;16.10;46.10
61591;DHT22;57639;52.410;-1.966;2023-02-03T07:42:42;16.30;45.80
61591;DHT22;57639;52.410;-1.966;2023-02-03T07:45:48;16.60;45.40
61591;DHT22;57639;52.410;-1.966;2023-02-03T07:48:57;16.70;45.20
61591;DHT22;57639;52.410;-1.966;2023-02-03T07:52:07;16.90;44.90
61591;DHT22;57639;52.410;-1.966;2023-02-03T07:55:13;17.00;44.70
61591;DHT22;57639;52.410;-1.966;2023-02-03T07:58:19;17.10;44.50
61591;DHT22;57639;52.410;-1.966;2023-02-03T08:01:25;17.30;44.30
61591;DHT22;57639;52.410;-1.966;2023-02-03T08:04:35;17.40;44.10
61591;DHT22;57639;52.410;-1.966;2023-02-03T08:07:42;17.50;44.00
61591;DHT22;57639;52.410;-1.966;2023-02-03T08:10:48;17.60;43.80
61591;DHT22;57639;52.410;-1.966;2023-02-03T08:13:54;17.60;43.70
61591;DHT22;57639;52.410;-1.966;2023-02-03T08:16:59;17.60;43.70
61591;DHT22;57639;52.410;-1.966;2023-02-03T08:20:12;17.60;43.70
61591;DHT22;57639;52.410;-1.966;2023-02-03T08:23:18;17.60;43.80
61591;DHT22;57639;52.410;-1.966;2023-02-03T08:26:27;17.50;43.90
61591;DHT22;57639;52.410;-1.966;2023-02-03T08:29:36;17.40;44.00
61591;DHT22;57639;52.410;-1.966;2023-02-03T08:32:42;17.40;44.00
61591;DHT22;57639;52.410;-1.966;2023-02-03T08:35:51;17.30;44.10
61591;DHT22;57639;52.410;-1.966;2023-02-03T08:38:58;17.20;44.30
61591;DHT22;57639;52.410;-1.966;2023-02-03T08:42:05;17.10;44.40
61591;DHT22;57639;52.410;-1.966;2023-02-03T08:45:11;17.00;44.70
61591;DHT22;57639;52.410;-1.966;2023-02-03T08:48:17;17.00;44.80
61591;DHT22;57639;52.410;-1.966;2023-02-03T08:51:25;16.90;45.00
61591;DHT22;57639;52.410;-1.966;2023-02-03T08:54:32;16.80;45.00
61591;DHT22;57639;52.410;-1.966;2023-02-03T08:57:38;16.70;45.20
61591;DHT22;57639;52.410;-1.966;2023-02-03T09:00:44;16.70;45.30
61591;DHT22;57639;52.410;-1.966;2023-02-03T09:03:51;16.70;45.40
61591;DHT22;57639;52.410;-1.966;2023-02-03T09:07:02;16.60;45.60
61591;DHT22;57639;52.410;-1.966;2023-02-03T09:10:10;16.60;45.60
61591;DHT22;57639;52.410;-1.966;2023-02-03T09:13:16;16.50;45.70
61591;DHT22;57639;52.410;-1.966;2023-02-03T09:16:25;16.40;45.90
61591;DHT22;57639;52.410;-1.966;2023-02-03T09:19:32;16.30;46.00
61591;DHT22;57639;52.410;-1.966;2023-02-03T09:22:41;16.30;46.10
61591;DHT22;57639;52.410;-1.966;2023-02-03T09:25:47;16.20;46.20
61591;DHT22;57639;52.410;-1.966;2023-02-03T09:28:54;16.20;46.30
61591;DHT22;57639;52.410;-1.966;2023-02-03T09:32:00;16.10;46.40
61591;DHT22;57639;52.410;-1.966;2023-02-03T09:35:09;16.10;46.40
61591;DHT22;57639;52.410;-1.966;2023-02-03T09:38:18;16.10;46.50
61591;DHT22;57639;52.410;-1.966;2023-02-03T09:41:39;16.10;46.60
61591;DHT22;57639;52.410;-1.966;2023-02-03T09:44:57;16.00;46.80
61591;DHT22;57639;52.410;-1.966;2023-02-03T09:48:12;16.00;46.80
61591;DHT22;57639;52.410;-1.966;2023-02-03T09:51:25;16.00;46.90
61591;DHT22;57639;52.410;-1.966;2023-02-03T09:54:40;15.90;46.90
61591;DHT22;57639;52.410;-1.966;2023-02-03T09:57:50;15.90;47.00
61591;DHT22;57639;52.410;-1.966;2023-02-03T10:00:59;15.80;47.10
61591;DHT22;57639;52.410;-1.966;2023-02-03T10:04:20;15.80;47.10
61591;DHT22;57639;52.410;-1.966;2023-02-03T10:07:35;15.80;47.10
61591;DHT22;57639;52.410;-1.966;2023-02-03T10:10:53;15.80;47.20
61591;DHT22;57639;52.410;-1.966;2023-02-03T10:14:23;15.80;47.30
61591;DHT22;57639;52.410;-1.966;2023-02-03T10:17:37;15.70;47.40
61591;DHT22;57639;52.410;-1.966;2023-02-03T10:20:47;15.70;47.40
61591;DHT22;57639;52.410;-1.966;2023-02-03T10:23:54;15.70;47.50
61591;DHT22;57639;52.410;-1.966;2023-02-03T10:27:04;15.70;47.50
61591;DHT22;57639;52.410;-1.966;2023-02-03T10:30:18;15.60;47.60
61591;DHT22;57639;52.410;-1.966;2023-02-03T10:33:26;15.60;47.50
61591;DHT22;57639;52.410;-1.966;2023-02-03T10:36:43;15.60;47.40
61591;DHT22;57639;52.410;-1.966;2023-02-03T10:39:52;15.60;47.40
61591;DHT22;57639;52.410;-1.966;2023-02-03T10:43:01;15.60;47.60
61591;DHT22;57639;52.410;-1.966;2023-02-03T10:46:27;15.60;47.60
61591;DHT22;57639;52.410;-1.966;2023-02-03T10:49:33;15.60;47.70
61591;DHT22;57639;52.410;-1.966;2023-02-03T10:52:39;15.60;47.60
61591;DHT22;57639;52.410;-1.966;2023-02-03T10:55:47;15.60;47.70
61591;DHT22;57639;52.410;-1.966;2023-02-03T10:58:58;15.60;47.70
61591;DHT22;57639;52.410;-1.966;2023-02-03T11:02:13;15.60;47.70
61591;DHT22;57639;52.410;-1.966;2023-02-03T11:05:26;15.60;47.70
61591;DHT22;57639;52.410;-1.966;2023-02-03T11:08:33;15.60;47.70
61591;DHT22;57639;52.410;-1.966;2023-02-03T11:11:39;15.50;47.80
61591;DHT22;57639;52.410;-1.966;2023-02-03T11:14:49;15.60;47.70
61591;DHT22;57639;52.410;-1.966;2023-02-03T11:17:55;15.60;47.60
61591;DHT22;57639;52.410;-1.966;2023-02-03T11:21:08;15.60;47.80
61591;DHT22;57639;52.410;-1.966;2023-02-03T11:24:18;15.50;47.90
61591;DHT22;57639;52.410;-1.966;2023-02-03T11:27:28;15.60;48.00
61591;DHT22;57639;52.410;-1.966;2023-02-03T11:30:37;15.60;48.00
61591;DHT22;57639;52.410;-1.966;2023-02-03T11:33:47;15.50;48.00
61591;DHT22;57639;52.410;-1.966;2023-02-03T11:36:53;15.50;48.20
61591;DHT22;57639;52.410;-1.966;2023-02-03T11:40:24;15.50;48.10
61591;DHT22;57639;52.410;-1.966;2023-02-03T11:43:31;15.50;48.00
61591;DHT22;57639;52.410;-1.966;2023-02-03T11:46:40;15.50;48.10
61591;DHT22;57639;52.410;-1.966;2023-02-03T11:50:05;15.50;48.20
61591;DHT22;57639;52.410;-1.966;2023-02-03T11:53:26;15.50;48.30
61591;DHT22;57639;52.410;-1.966;2023-02-03T11:56:48;15.50;48.30
61591;DHT22;57639;52.410;-1.966;2023-02-03T12:00:08;15.50;48.20
61591;DHT22;57639;52.410;-1.966;2023-02-03T12:07:09;15.50;48.40
61591;DHT22;57639;52.410;-1.966;2023-02-03T12:10:40;15.50;48.20
61591;DHT22;57639;52.410;-1.966;2023-02-03T12:14:16;15.60;48.20
61591;DHT22;57639;52.410;-1.966;2023-02-03T12:17:43;15.60;48.20
61591;DHT22;57639;52.410;-1.966;2023-02-03T12:21:03;15.80;48.10
61591;DHT22;57639;52.410;-1.966;2023-02-03T12:24:21;16.00;47.90
61591;DHT22;57639;52.410;-1.966;2023-02-03T12:27:40;16.20;47.50
61591;DHT22;57639;52.410;-1.966;2023-02-03T12:30:52;16.50;47.10
61591;DHT22;57639;52.410;-1.966;2023-02-03T12:34:05;16.80;46.70
61591;DHT22;57639;52.410;-1.966;2023-02-03T12:37:22;17.00;46.30
61591;DHT22;57639;52.410;-1.966;2023-02-03T12:40:35;17.20;45.80
61591;DHT22;57639;52.410;-1.966;2023-02-03T12:43:43;17.40;45.50
61591;DHT22;57639;52.410;-1.966;2023-02-03T12:46:55;17.60;45.20
61591;DHT22;57639;52.410;-1.966;2023-02-03T12:50:13;17.80;44.90
61591;DHT22;57639;52.410;-1.966;2023-02-03T12:53:27;18.00;44.70
61591;DHT22;57639;52.410;-1.966;2023-02-03T12:56:39;18.10;44.40
61591;DHT22;57639;52.410;-1.966;2023-02-03T13:00:05;18.20;44.20
61591;DHT22;57639;52.410;-1.966;2023-02-03T13:03:18;18.40;44.10
61591;DHT22;57639;52.410;-1.966;2023-02-03T13:06:32;18.40;44.00
61591;DHT22;57639;52.410;-1.966;2023-02-03T13:09:48;18.50;44.00
61591;DHT22;57639;52.410;-1.966;2023-02-03T13:12:57;18.50;43.90
61591;DHT22;57639;52.410;-1.966;2023-02-03T13:16:06;18.50;43.90
61591;DHT22;57639;52.410;-1.966;2023-02-03T13:19:17;18.40;44.00
61591;DHT22;57639;52.410;-1.966;2023-02-03T13:22:26;18.40;44.20
61591;DHT22;57639;52.410;-1.966;2023-02-03T13:25:44;18.30;44.30
61591;DHT22;57639;52.410;-1.966;2023-02-03T13:29:07;18.20;44.40
61591;DHT22;57639;52.410;-1.966;2023-02-03T13:32:27;18.10;44.50
61591;DHT22;57639;52.410;-1.966;2023-02-03T13:35:47;18.10;44.70
61591;DHT22;57639;52.410;-1.966;2023-02-03T13:39:12;18.00;44.70
61591;DHT22;57639;52.410;-1.966;2023-02-03T13:42:27;17.90;44.90
61591;DHT22;57639;52.410;-1.966;2023-02-03T13:45:39;17.80;45.00
61591;DHT22;57639;52.410;-1.966;2023-02-03T13:48:46;17.70;45.10
61591;DHT22;57639;52.410;-1.966;2023-02-03T13:51:52;17.60;45.30
61591;DHT22;57639;52.410;-1.966;2023-02-03T13:55:01;17.60;45.40
61591;DHT22;57639;52.410;-1.966;2023-02-03T13:58:19;17.50;45.50
61591;DHT22;57639;52.410;-1.966;2023-02-03T14:01:31;17.40;45.60
61591;DHT22;57639;52.410;-1.966;2023-02-03T14:04:56;17.30;45.70
61591;DHT22;57639;52.410;-1.966;2023-02-03T14:16:20;17.10;46.00
61591;DHT22;57639;52.410;-1.966;2023-02-03T14:20:02;17.10;46.10
61591;DHT22;57639;52.410;-1.966;2023-02-03T14:23:15;17.00;46.20
61591;DHT22;57639;52.410;-1.966;2023-02-03T14:26:40;17.00;46.30
61591;DHT22;57639;52.410;-1.966;2023-02-03T14:30:02;16.90;46.40
61591;DHT22;57639;52.410;-1.966;2023-02-03T14:33:12;16.80;46.50
61591;DHT22;57639;52.410;-1.966;2023-02-03T14:36:30;16.80;46.50
61591;DHT22;57639;52.410;-1.966;2023-02-03T14:39:59;16.70;46.60
61591;DHT22;57639;52.410;-1.966;2023-02-03T14:43:31;16.70;46.70
61591;DHT22;57639;52.410;-1.966;2023-02-03T14:46:50;16.70;46.70
61591;DHT22;57639;52.410;-1.966;2023-02-03T14:50:16;16.60;46.80
61591;DHT22;57639;52.410;-1.966;2023-02-03T14:53:44;16.60;46.90
61591;DHT22;57639;52.410;-1.966;2023-02-03T14:57:05;16.60;46.90
61591;DHT22;57639;52.410;-1.966;2023-02-03T15:00:27;16.60;46.90
61591;DHT22;57639;52.410;-1.966;2023-02-03T15:03:33;16.50;47.00
61591;DHT22;57639;52.410;-1.966;2023-02-03T15:06:50;16.50;47.10
61591;DHT22;57639;52.410;-1.966;2023-02-03T15:09:56;16.50;47.10
61591;DHT22;57639;52.410;-1.966;2023-02-03T15:13:02;16.40;47.20
61591;DHT22;57639;52.410;-1.966;2023-02-03T15:16:13;16.40;47.20
61591;DHT22;57639;52.410;-1.966;2023-02-03T15:19:24;16.40;47.30
61591;DHT22;57639;52.410;-1.966;2023-02-03T15:22:37;16.40;47.30
61591;DHT22;57639;52.410;-1.966;2023-02-03T15:25:43;16.30;47.40
61591;DHT22;57639;52.410;-1.966;2023-02-03T15:28:59;16.30;47.40
61591;DHT22;57639;52.410;-1.966;2023-02-03T15:32:10;16.30;47.50
61591;DHT22;57639;52.410;-1.966;2023-02-03T15:35:18;16.30;47.50
61591;DHT22;57639;52.410;-1.966;2023-02-03T15:38:30;16.20;47.50
61591;DHT22;57639;52.410;-1.966;2023-02-03T15:41:38;16.20;47.60
61591;DHT22;57639;52.410;-1.966;2023-02-03T15:44:48;16.10;47.60
61591;DHT22;57639;52.410;-1.966;2023-02-03T15:47:58;16.10;47.60
61591;DHT22;57639;52.410;-1.966;2023-02-03T15:51:09;16.10;47.70
61591;DHT22;57639;52.410;-1.966;2023-02-03T15:54:26;16.10;47.70
61591;DHT22;57639;52.410;-1.966;2023-02-03T15:57:44;16.10;47.80
61591;DHT22;57639;52.410;-1.966;2023-02-03T16:00:54;16.10;47.90
61591;DHT22;57639;52.410;-1.966;2023-02-03T16:04:01;16.10;47.80
61591;DHT22;57639;52.410;-1.966;2023-02-03T16:07:19;16.00;47.90
61591;DHT22;57639;52.410;-1.966;2023-02-03T16:10:31;16.00;48.00
61591;DHT22;57639;52.410;-1.966;2023-02-03T16:13:42;16.00;48.00
61591;DHT22;57639;52.410;-1.966;2023-02-03T16:16:49;16.00;48.00
61591;DHT22;57639;52.410;-1.966;2023-02-03T16:20:23;16.00;48.00
61591;DHT22;57639;52.410;-1.966;2023-02-03T16:23:30;16.00;48.10
61591;DHT22;57639;52.410;-1.966;2023-02-03T16:26:39;15.90;48.20
61591;DHT22;57639;52.410;-1.966;2023-02-03T16:29:45;15.90;48.20
61591;DHT22;57639;52.410;-1.966;2023-02-03T16:33:14;15.80;48.30
61591;DHT22;57639;52.410;-1.966;2023-02-03T16:36:39;15.80;48.30
61591;DHT22;57639;52.410;-1.966;2023-02-03T16:40:01;15.80;48.30
61591;DHT22;57639;52.410;-1.966;2023-02-03T16:43:25;15.80;48.40
61591;DHT22;57639;52.410;-1.966;2023-02-03T16:46:47;15.70;48.50
61591;DHT22;57639;52.410;-1.966;2023-02-03T16:50:13;15.70;48.50
61591;DHT22;57639;52.410;-1.966;2023-02-03T16:53:35;15.70;48.40
61591;DHT22;57639;52.410;-1.966;2023-02-03T16:56:42;15.70;48.50
61591;DHT22;57639;52.410;-1.966;2023-02-03T16:59:48;15.70;48.50
61591;DHT22;57639;52.410;-1.966;2023-02-03T17:02:57;15.70;48.50
61591;DHT22;57639;52.410;-1.966;2023-02-03T17:06:05;15.70;48.40
61591;DHT22;57639;52.410;-1.966;2023-02-03T17:09:11;15.70;48.40
61591;DHT22;57639;52.410;-1.966;2023-02-03T17:12:17;15.70;48.50
61591;DHT22;57639;52.410;-1.966;2023-02-03T17:15:26;15.70;48.50
61591;DHT22;57639;52.410;-1.966;2023-02-03T17:18:35;15.70;48.40
61591;DHT22;57639;52.410;-1.966;2023-02-03T17:21:41;15.70;48.40
61591;DHT22;57639;52.410;-1.966;2023-02-03T17:24:45;15.70;48.40
61591;DHT22;57639;52.410;-1.966;2023-02-03T17:27:51;15.60;48.40
61591;DHT22;57639;52.410;-1.966;2023-02-03T17:31:02;15.70;48.40
61591;DHT22;57639;52.410;-1.966;2023-02-03T17:34:08;15.70;48.30
61591;DHT22;57639;52.410;-1.966;2023-02-03T17:37:14;15.70;48.40
61591;DHT22;57639;52.410;-1.966;2023-02-03T17:40:20;15.60;48.40
61591;DHT22;57639;52.410;-1.966;2023-02-03T17:43:27;15.60;48.50
61591;DHT22;57639;52.410;-1.966;2023-02-03T17:46:37;15.60;48.50
61591;DHT22;57639;52.410;-1.966;2023-02-03T17:49:45;15.60;48.50
61591;DHT22;57639;52.410;-1.966;2023-02-03T17:52:53;15.60;48.50
61591;DHT22;57639;52.410;-1.966;2023-02-03T17:56:06;15.60;48.50
61591;DHT22;57639;52.410;-1.966;2023-02-03T17:59:12;15.60;48.50
61591;DHT22;57639;52.410;-1.966;2023-02-03T18:02:21;15.50;48.50
61591;DHT22;57639;52.410;-1.966;2023-02-03T18:05:27;15.60;48.60
61591;DHT22;57639;52.410;-1.966;2023-02-03T18:08:36;15.50;48.60
61591;DHT22;57639;52.410;-1.966;2023-02-03T18:11:45;15.60;48.60
61591;DHT22;57639;52.410;-1.966;2023-02-03T18:14:52;15.60;48.40
61591;DHT22;57639;52.410;-1.966;2023-02-03T18:18:02;15.70;48.30
61591;DHT22;57639;52.410;-1.966;2023-02-03T18:21:11;15.80;48.30
61591;DHT22;57639;52.410;-1.966;2023-02-03T18:24:17;16.00;48.20
61591;DHT22;57639;52.410;-1.966;2023-02-03T18:27:29;16.20;47.80
61591;DHT22;57639;52.410;-1.966;2023-02-03T18:30:35;16.50;47.40
61591;DHT22;57639;52.410;-1.966;2023-02-03T18:33:45;16.80;47.40
61591;DHT22;57639;52.410;-1.966;2023-02-03T18:36:51;17.10;46.90
61591;DHT22;57639;52.410;-1.966;2023-02-03T18:39:57;17.30;46.50
61591;DHT22;57639;52.410;-1.966;2023-02-03T18:43:03;17.50;46.10
61591;DHT22;57639;52.410;-1.966;2023-02-03T18:46:16;17.60;45.70
61591;DHT22;57639;52.410;-1.966;2023-02-03T18:49:25;17.90;45.30
61591;DHT22;57639;52.410;-1.966;2023-02-03T18:52:31;18.10;45.00
61591;DHT22;57639;52.410;-1.966;2023-02-03T18:55:40;18.10;44.80
61591;DHT22;57639;52.410;-1.966;2023-02-03T18:58:46;18.30;44.60
61591;DHT22;57639;52.410;-1.966;2023-02-03T19:01:52;18.40;44.40
61591;DHT22;57639;52.410;-1.966;2023-02-03T19:05:01;18.50;44.30
61591;DHT22;57639;52.410;-1.966;2023-02-03T19:08:08;18.50;44.20
61591;DHT22;57639;52.410;-1.966;2023-02-03T19:11:14;18.60;44.20
61591;DHT22;57639;52.410;-1.966;2023-02-03T19:14:20;18.60;44.10
61591;DHT22;57639;52.410;-1.966;2023-02-03T19:17:26;18.60;44.00
61591;DHT22;57639;52.410;-1.966;2023-02-03T19:20:35;18.50;44.00
61591;DHT22;57639;52.410;-1.966;2023-02-03T19:23:41;18.40;44.10
61591;DHT22;57639;52.410;-1.966;2023-02-03T19:26:49;18.40;44.10
61591;DHT22;57639;52.410;-1.966;2023-02-03T19:29:53;18.30;44.10
61591;DHT22;57639;52.410;-1.966;2023-02-03T19:32:59;18.20;44.20
61591;DHT22;57639;52.410;-1.966;2023-02-03T19:36:09;18.20;44.30
61591;DHT22;57639;52.410;-1.966;2023-02-03T19:39:15;18.10;44.50
61591;DHT22;57639;52.410;-1.966;2023-02-03T19:42:23;18.10;44.50
61591;DHT22;57639;52.410;-1.966;2023-02-03T19:45:29;18.10;44.50
61591;DHT22;57639;52.410;-1.966;2023-02-03T19:48:35;18.00;44.50
61591;DHT22;57639;52.410;-1.966;2023-02-03T19:51:44;18.10;44.50
61591;DHT22;57639;52.410;-1.966;2023-02-03T19:54:50;18.10;44.50
61591;DHT22;57639;52.410;-1.966;2023-02-03T19:57:57;18.10;44.60
61591;DHT22;57639;52.410;-1.966;2023-02-03T20:01:04;18.10;44.60
61591;DHT22;57639;52.410;-1.966;2023-02-03T20:04:13;18.10;44.60
61591;DHT22;57639;52.410;-1.966;2023-02-03T20:07:22;18.10;44.50